createdAt,value
2022-09-01T00:00:49.907Z,81.44
2022-09-01T00:01:54.075Z,81.10
2022-09-01T00:02:56.943Z,78.62
2022-09-01T00:04:03.550Z,80.27
2022-09-01T00:05:07.815Z,80.47
2022-09-01T00:06:11.919Z,82.08
2022-09-01T00:07:15.077Z,82.55
2022-09-01T00:08:18.505Z,82.45
2022-09-01T00:09:23.348Z,80.85
2022-09-01T00:10:26.304Z,81.38
2022-09-01T00:11:31.453Z,81.42
2022-09-01T00:12:35.221Z,81.03
2022-09-01T00:13:38.311Z,80.88
2022-09-01T00:14:47.756Z,81.81
2022-09-01T00:15:50.512Z,82.10
2022-09-01T00:16:54.349Z,80.33
2022-09-01T00:17:58.731Z,81.46
2022-09-01T00:19:01.996Z,81.73
2022-09-01T00:20:06.156Z,81.61
2022-09-01T00:21:11.200Z,82.08
2022-09-01T00:22:14.039Z,80.12
2022-09-01T00:23:16.890Z,79.81
2022-09-01T00:24:20.216Z,81.13
2022-09-01T00:25:25.029Z,80.97
2022-09-01T00:26:31.897Z,82.36
2022-09-01T00:27:35.021Z,81.46
2022-09-01T00:28:38.911Z,82.52
2022-09-01T00:29:43.385Z,82.52
2022-09-01T00:30:46.970Z,81.98
2022-09-01T00:31:51.056Z,82.63
2022-09-01T00:32:53.892Z,84.81
2022-09-01T00:33:59.854Z,84.99
2022-09-01T00:35:02.749Z,84.52
2022-09-01T00:36:06.051Z,84.78
2022-09-01T00:37:08.814Z,83.72
2022-09-01T00:38:12.034Z,85.49
2022-09-01T00:39:15.937Z,84.55
2022-09-01T00:40:18.813Z,84.02
2022-09-01T00:41:24.848Z,84.59
2022-09-01T00:42:27.669Z,84.91
2022-09-01T00:43:56.982Z,87.37
2022-09-01T00:44:59.856Z,86.12
2022-09-01T00:46:05.324Z,85.07
2022-09-01T00:47:08.256Z,86.49
2022-09-01T00:48:11.900Z,85.73
2022-09-01T00:49:31.619Z,86.46
2022-09-01T00:50:38.556Z,85.49
2022-09-01T00:51:53.451Z,87.41
2022-09-01T00:52:56.341Z,86.57
2022-09-01T00:54:01.204Z,85.79
2022-09-01T00:55:11.939Z,85.32
2022-09-01T00:56:15.193Z,85.99
2022-09-01T00:57:18.592Z,87.27
2022-09-01T00:58:21.593Z,86.92
2022-09-01T00:59:26.748Z,86.80
2022-09-01T01:00:32.630Z,86.64
2022-09-01T01:01:37.027Z,85.88
2022-09-01T01:02:41.688Z,85.28
2022-09-01T01:03:47.352Z,85.74
2022-09-01T01:04:52.986Z,85.87
2022-09-01T01:06:01.639Z,85.62
2022-09-01T01:07:06.927Z,85.51
2022-09-01T01:08:12.096Z,86.01
2022-09-01T01:09:14.997Z,86.05
2022-09-01T01:10:22.549Z,86.73
2022-09-01T01:11:32.551Z,86.09
2022-09-01T01:12:38.304Z,87.39
2022-09-01T01:13:55.040Z,86.04
2022-09-01T01:14:57.962Z,86.83
2022-09-01T01:16:00.978Z,86.30
2022-09-01T01:17:03.899Z,86.38
2022-09-01T01:18:06.843Z,85.36
2022-09-01T01:19:38.977Z,86.38
2022-09-01T01:21:01.658Z,86.23
2022-09-01T01:22:27.102Z,85.89
2022-09-01T01:23:58.089Z,84.96
2022-09-01T01:25:02.095Z,83.12
2022-09-01T01:26:07.828Z,85.66
2022-09-01T01:27:13.774Z,85.89
2022-09-01T01:28:20.248Z,85.87
2022-09-01T01:29:24.359Z,85.89
2022-09-01T01:30:28.419Z,85.49
2022-09-01T01:31:33.254Z,84.95
2022-09-01T01:32:36.386Z,85.06
2022-09-01T01:33:51.487Z,85.70
2022-09-01T01:34:54.540Z,88.10
2022-09-01T01:35:58.643Z,87.10
2022-09-01T01:37:01.985Z,85.98
2022-09-01T01:38:08.284Z,87.37
2022-09-01T01:39:29.280Z,87.18
2022-09-01T01:40:31.940Z,87.90
2022-09-01T01:41:36.333Z,88.53
2022-09-01T01:42:39.297Z,86.16
2022-09-01T01:43:42.573Z,85.36
2022-09-01T01:44:46.673Z,86.30
2022-09-01T01:45:52.526Z,85.53
2022-09-01T01:46:56.453Z,84.34
2022-09-01T01:48:01.643Z,85.27
2022-09-01T01:49:04.702Z,85.23
2022-09-01T01:50:09.611Z,86.15
2022-09-01T01:51:14.066Z,85.88
2022-09-01T01:52:17.644Z,87.10
2022-09-01T01:53:21.329Z,85.41
2022-09-01T01:54:26.071Z,85.25
2022-09-01T01:55:31.354Z,86.33
2022-09-01T01:56:40.251Z,87.38
2022-09-01T01:57:49.130Z,86.51
2022-09-01T01:58:54.958Z,86.73
2022-09-01T01:59:58.419Z,87.47
2022-09-01T02:01:01.249Z,86.82
2022-09-01T02:02:10.129Z,85.82
2022-09-01T02:03:17.486Z,86.30
2022-09-01T02:04:20.963Z,87.28
2022-09-01T02:05:28.972Z,87.38
2022-09-01T02:06:35.351Z,86.52
2022-09-01T02:07:40.342Z,86.40
2022-09-01T02:08:43.975Z,87.35
2022-09-01T02:09:48.416Z,87.34
2022-09-01T02:10:53.659Z,85.52
2022-09-01T02:11:57.452Z,85.70
2022-09-01T02:13:07.668Z,87.38
2022-09-01T02:14:13.729Z,86.29
2022-09-01T02:15:16.799Z,86.52
2022-09-01T02:16:21.386Z,87.66
2022-09-01T02:17:25.724Z,86.75
2022-09-01T02:18:37.797Z,87.24
2022-09-01T02:19:42.614Z,86.64
2022-09-01T02:20:48.113Z,87.26
2022-09-01T02:21:56.385Z,87.38
2022-09-01T02:23:11.779Z,87.77
2022-09-01T02:24:19.806Z,89.25
2022-09-01T02:25:24.951Z,89.49
2022-09-01T02:26:32.341Z,88.68
2022-09-01T02:27:37.190Z,89.28
2022-09-01T02:28:42.739Z,89.49
2022-09-01T02:29:45.503Z,90.74
2022-09-01T02:30:52.124Z,89.50
2022-09-01T02:31:57.839Z,87.87
2022-09-01T02:33:00.730Z,87.68
2022-09-01T02:34:04.427Z,86.49
2022-09-01T02:35:10.334Z,87.61
2022-09-01T02:36:16.366Z,87.52
2022-09-01T02:37:24.767Z,87.23
2022-09-01T02:38:29.975Z,86.43
2022-09-01T02:39:35.937Z,88.28
2022-09-01T02:40:41.858Z,86.42
2022-09-01T02:41:45.195Z,86.68
2022-09-01T02:42:48.235Z,87.08
2022-09-01T02:43:51.525Z,86.33
2022-09-01T02:44:55.491Z,86.11
2022-09-01T02:46:05.829Z,85.78
2022-09-01T02:47:10.091Z,86.02
2022-09-01T02:48:13.565Z,85.89
2022-09-01T02:49:28.539Z,85.94
2022-09-01T02:50:33.979Z,87.50
2022-09-01T02:51:37.561Z,87.22
2022-09-01T02:52:42.060Z,86.43
2022-09-01T02:53:49.967Z,87.10
2022-09-01T02:54:54.087Z,86.78
2022-09-01T02:55:59.223Z,86.71
2022-09-01T02:57:03.456Z,86.55
2022-09-01T02:58:10.669Z,86.37
2022-09-01T02:59:16.824Z,85.62
2022-09-01T03:00:40.248Z,85.36
2022-09-01T03:01:45.101Z,85.66
2022-09-01T03:02:51.911Z,85.38
2022-09-01T03:03:57.698Z,85.09
2022-09-01T03:05:00.502Z,84.95
2022-09-01T03:06:03.357Z,84.63
2022-09-01T03:07:07.332Z,84.94
2022-09-01T03:08:16.289Z,86.32
2022-09-01T03:09:19.256Z,85.40
2022-09-01T03:10:24.851Z,84.74
2022-09-01T03:11:32.038Z,86.31
2022-09-01T03:12:34.868Z,85.76
2022-09-01T03:13:40.284Z,85.25
2022-09-01T03:14:43.110Z,86.07
2022-09-01T03:15:46.043Z,86.12
2022-09-01T03:16:48.976Z,85.96
2022-09-01T03:17:52.334Z,86.03
2022-09-01T03:18:55.154Z,86.19
2022-09-01T03:20:00.119Z,85.88
2022-09-01T03:21:03.981Z,85.14
2022-09-01T03:22:06.841Z,85.73
2022-09-01T03:23:15.282Z,87.15
2022-09-01T03:24:22.730Z,86.17
2022-09-01T03:25:25.953Z,86.63
2022-09-01T03:26:28.696Z,85.64
2022-09-01T03:27:31.486Z,87.02
2022-09-01T03:28:34.403Z,88.04
2022-09-01T03:29:38.472Z,87.02
2022-09-01T03:30:49.223Z,87.60
2022-09-01T03:31:51.915Z,86.95
2022-09-01T03:32:54.745Z,88.11
2022-09-01T03:33:57.740Z,88.39
2022-09-01T03:35:00.548Z,88.94
2022-09-01T03:36:04.442Z,87.96
2022-09-01T03:37:08.278Z,88.56
2022-09-01T03:38:13.041Z,87.88
2022-09-01T03:39:18.489Z,87.32
2022-09-01T03:40:21.547Z,87.74
2022-09-01T03:41:28.689Z,90.62
2022-09-01T03:42:32.365Z,91.25
2022-09-01T03:43:35.708Z,90.31
2022-09-01T03:44:41.169Z,89.96
2022-09-01T03:45:46.447Z,89.80
2022-09-01T03:46:49.290Z,89.93
2022-09-01T03:47:54.729Z,89.17
2022-09-01T03:49:03.653Z,89.80
2022-09-01T03:50:20.511Z,88.89
2022-09-01T03:51:24.464Z,88.55
2022-09-01T03:52:28.042Z,87.97
2022-09-01T03:53:37.999Z,88.12
2022-09-01T03:54:40.893Z,88.05
2022-09-01T03:55:46.376Z,88.45
2022-09-01T03:56:49.390Z,88.93
2022-09-01T03:57:57.931Z,87.96
2022-09-01T03:59:04.891Z,87.31
2022-09-01T04:00:20.875Z,86.34
2022-09-01T04:01:24.716Z,87.25
2022-09-01T04:02:30.945Z,87.55
2022-09-01T04:03:36.124Z,86.84
2022-09-01T04:04:39.301Z,87.62
2022-09-01T04:05:46.262Z,87.82
2022-09-01T04:06:49.419Z,88.64
2022-09-01T04:07:52.542Z,88.71
2022-09-01T04:08:57.179Z,89.17
2022-09-01T04:09:59.970Z,88.79
2022-09-01T04:11:10.804Z,88.62
2022-09-01T04:12:15.997Z,88.93
2022-09-01T04:13:30.856Z,88.71
2022-09-01T04:14:34.952Z,88.81
2022-09-01T04:15:38.753Z,89.13
2022-09-01T04:17:02.442Z,89.88
2022-09-01T04:18:26.411Z,90.13
2022-09-01T04:19:37.189Z,90.36
2022-09-01T04:20:50.645Z,89.14
2022-09-01T04:21:56.929Z,90.24
2022-09-01T04:23:00.088Z,91.33
2022-09-01T04:24:05.526Z,91.56
2022-09-01T04:25:09.193Z,91.28
2022-09-01T04:26:20.855Z,90.76
2022-09-01T04:27:27.252Z,90.67
2022-09-01T04:28:36.276Z,89.93
2022-09-01T04:29:39.066Z,88.87
2022-09-01T04:30:42.565Z,89.61
2022-09-01T04:31:53.867Z,89.58
2022-09-01T04:32:57.202Z,89.41
2022-09-01T04:34:00.156Z,88.94
2022-09-01T04:35:03.063Z,88.22
2022-09-01T04:36:27.993Z,89.29
2022-09-01T04:37:31.264Z,88.16
2022-09-01T04:38:37.356Z,87.92
2022-09-01T04:39:52.502Z,88.04
2022-09-01T04:40:57.578Z,88.73
2022-09-01T04:42:00.360Z,89.09
2022-09-01T04:43:03.107Z,88.99
2022-09-01T04:44:07.338Z,88.78
2022-09-01T04:45:11.464Z,89.00
2022-09-01T04:46:15.912Z,91.19
2022-09-01T04:47:20.100Z,90.90
2022-09-01T04:48:23.214Z,89.95
2022-09-01T04:49:34.002Z,90.47
2022-09-01T04:50:37.726Z,89.67
2022-09-01T04:51:43.300Z,89.33
2022-09-01T04:52:48.048Z,88.52
2022-09-01T04:53:52.905Z,87.91
2022-09-01T04:54:55.620Z,89.59
2022-09-01T04:56:04.703Z,89.84
2022-09-01T04:57:07.520Z,90.39
2022-09-01T04:58:17.657Z,89.92
2022-09-01T04:59:24.059Z,90.09
2022-09-01T05:00:33.097Z,91.21
2022-09-01T05:01:45.534Z,89.42
2022-09-01T05:03:03.871Z,89.42
2022-09-01T05:04:06.778Z,91.50
2022-09-01T05:05:12.859Z,90.45
2022-09-01T05:06:18.375Z,91.74
2022-09-01T05:08:32.747Z,91.56
2022-09-01T05:09:37.756Z,89.89
2022-09-01T05:10:47.095Z,89.74
2022-09-01T05:11:51.064Z,89.73
2022-09-01T05:12:53.925Z,90.38
2022-09-01T05:13:57.951Z,92.37
2022-09-01T05:15:06.907Z,93.47
2022-09-01T05:16:13.429Z,93.49
2022-09-01T05:17:17.775Z,94.53
2022-09-01T05:18:28.398Z,93.84
2022-09-01T05:19:31.211Z,94.23
2022-09-01T05:20:34.781Z,94.87
2022-09-01T05:21:38.926Z,94.45
2022-09-01T05:22:42.354Z,94.16
2022-09-01T05:23:46.563Z,93.13
2022-09-01T05:24:55.240Z,94.09
2022-09-01T05:25:58.484Z,93.25
2022-09-01T05:27:01.330Z,93.22
2022-09-01T05:28:04.110Z,93.94
2022-09-01T05:29:27.983Z,94.02
2022-09-01T05:30:31.254Z,92.89
2022-09-01T05:31:38.033Z,91.99
2022-09-01T05:32:40.977Z,91.66
2022-09-01T05:33:46.227Z,92.90
2022-09-01T05:34:53.761Z,95.14
2022-09-01T05:36:02.339Z,96.37
2022-09-01T05:37:06.760Z,96.45
2022-09-01T05:38:13.343Z,94.50
2022-09-01T05:39:16.436Z,96.03
2022-09-01T05:40:19.429Z,95.38
2022-09-01T05:41:24.335Z,97.10
2022-09-01T05:42:28.813Z,95.67
2022-09-01T05:43:33.782Z,95.19
2022-09-01T05:44:40.506Z,95.63
2022-09-01T05:46:05.170Z,93.44
2022-09-01T05:47:09.205Z,93.80
2022-09-01T05:48:12.750Z,93.68
2022-09-01T05:49:16.465Z,93.61
2022-09-01T05:50:19.617Z,93.89
2022-09-01T05:51:43.862Z,95.06
2022-09-01T05:52:48.362Z,95.06
2022-09-01T05:53:53.430Z,95.53
2022-09-01T05:55:00.043Z,93.57
2022-09-01T05:56:09.541Z,92.95
2022-09-01T05:57:33.421Z,91.88
2022-09-01T05:59:59.837Z,92.41
2022-09-01T06:01:03.753Z,92.23
2022-09-01T06:02:09.122Z,91.06
2022-09-01T06:03:12.177Z,90.97
2022-09-01T06:04:16.358Z,89.87
2022-09-01T06:05:19.167Z,89.33
2022-09-01T06:06:36.738Z,89.77
2022-09-01T06:07:47.452Z,89.84
2022-09-01T06:08:51.725Z,89.62
2022-09-01T06:09:54.601Z,87.36
2022-09-01T06:10:57.443Z,90.69
2022-09-01T06:12:00.275Z,90.33
2022-09-01T06:13:03.438Z,90.26
2022-09-01T06:14:07.027Z,90.40
2022-09-01T06:15:16.516Z,90.13
2022-09-01T06:16:20.193Z,89.87
2022-09-01T06:17:26.820Z,90.59
2022-09-01T06:18:32.977Z,90.13
2022-09-01T06:19:37.333Z,90.60
2022-09-01T06:20:43.939Z,91.37
2022-09-01T06:21:46.860Z,90.60
2022-09-01T06:22:49.810Z,90.43
2022-09-01T06:23:55.761Z,91.20
2022-09-01T06:25:02.748Z,89.46
2022-09-01T06:26:07.193Z,89.19
2022-09-01T06:27:10.309Z,88.91
2022-09-01T06:28:17.339Z,88.91
2022-09-01T06:29:21.287Z,88.29
2022-09-01T06:30:27.963Z,88.85
2022-09-01T06:31:34.406Z,88.63
2022-09-01T06:32:38.879Z,90.28
2022-09-01T06:33:42.830Z,90.31
2022-09-01T06:34:51.503Z,89.07
2022-09-01T06:35:56.081Z,88.83
2022-09-01T06:36:59.889Z,87.44
2022-09-01T06:38:05.146Z,87.65
2022-09-01T06:39:09.720Z,88.69
2022-09-01T06:40:20.005Z,85.83
2022-09-01T06:41:23.561Z,86.93
2022-09-01T06:42:26.683Z,86.52
2022-09-01T06:43:31.037Z,85.84
2022-09-01T06:44:40.336Z,86.35
2022-09-01T06:45:54.583Z,86.52
2022-09-01T06:47:00.302Z,86.31
2022-09-01T06:48:07.085Z,86.83
2022-09-01T06:49:11.776Z,87.17
2022-09-01T06:51:14.537Z,86.46
2022-09-01T06:51:39.513Z,85.94
2022-09-01T06:54:13.885Z,85.72
2022-09-01T06:55:20.985Z,85.16
2022-09-01T06:56:32.045Z,84.62
2022-09-01T06:58:59.615Z,85.34
2022-09-01T07:00:13.303Z,87.02
2022-09-01T07:01:19.838Z,86.87
2022-09-01T07:02:26.600Z,88.36
2022-09-01T07:03:31.094Z,88.13
2022-09-01T07:04:36.006Z,86.15
2022-09-01T07:08:30.156Z,85.44
2022-09-01T07:09:46.901Z,85.22
2022-09-01T07:12:25.909Z,84.83
2022-09-01T07:13:29.151Z,83.42
2022-09-01T07:14:32.958Z,82.71
2022-09-01T07:18:31.379Z,83.10
2022-09-01T07:19:51.025Z,82.24
2022-09-01T07:21:36.816Z,80.41
2022-09-01T07:23:02.972Z,81.25
2022-09-01T07:23:46.689Z,81.61
2022-09-01T07:25:12.959Z,82.05
2022-09-01T07:26:27.010Z,79.05
2022-09-01T07:27:35.921Z,80.12
2022-09-01T07:28:43.585Z,80.46
2022-09-01T07:29:47.231Z,85.45
2022-09-01T07:30:56.855Z,85.28
2022-09-01T07:33:44.276Z,82.84
2022-09-01T07:36:26.782Z,87.67
2022-09-01T07:43:29.790Z,79.11
2022-09-01T07:44:38.919Z,80.36
2022-09-01T07:45:48.076Z,82.99
2022-09-01T07:50:24.121Z,84.00
2022-09-01T07:52:38.574Z,82.61
2022-09-01T07:53:41.443Z,82.31
2022-09-01T07:54:44.198Z,82.09
2022-09-01T07:55:47.399Z,81.18
2022-09-01T07:56:50.736Z,82.42
2022-09-01T07:57:53.625Z,83.21
2022-09-01T07:58:58.621Z,82.71
2022-09-01T08:00:01.573Z,82.71
2022-09-01T08:01:14.064Z,81.52
2022-09-01T08:02:18.589Z,80.50
2022-09-01T08:03:24.652Z,80.69
2022-09-01T08:04:27.760Z,82.15
2022-09-01T08:05:32.187Z,83.31
2022-09-01T08:06:39.312Z,84.46
2022-09-01T08:07:59.447Z,81.96
2022-09-01T08:09:02.305Z,81.19
2022-09-01T08:10:07.038Z,80.39
2022-09-01T08:11:09.974Z,74.85
2022-09-01T08:12:12.867Z,76.58
2022-09-01T08:13:17.142Z,78.91
2022-09-01T08:14:22.858Z,80.45
2022-09-01T08:16:06.680Z,80.97
2022-09-01T08:16:53.535Z,77.03
2022-09-01T08:17:56.844Z,79.67
2022-09-01T08:19:04.042Z,78.40
2022-09-01T08:20:10.368Z,80.16
2022-09-01T08:21:18.270Z,80.20
2022-09-01T08:22:24.284Z,78.39
2022-09-01T08:23:27.562Z,81.51
2022-09-01T08:24:31.191Z,79.19
2022-09-01T08:25:37.161Z,78.52
2022-09-01T08:26:40.450Z,76.20
2022-09-01T08:27:43.483Z,71.25
2022-09-01T08:28:54.368Z,76.57
2022-09-01T08:29:58.391Z,76.58
2022-09-01T08:31:01.454Z,76.42
2022-09-01T08:32:04.449Z,75.09
2022-09-01T08:33:10.736Z,73.39
2022-09-01T08:34:13.778Z,72.89
2022-09-01T08:35:16.729Z,76.45
2022-09-01T08:36:23.951Z,77.97
2022-09-01T08:37:28.003Z,76.51
2022-09-01T08:38:32.257Z,71.59
2022-09-01T08:39:35.150Z,75.30
2022-09-01T08:40:42.253Z,74.46
2022-09-01T08:41:59.326Z,75.79
2022-09-01T08:43:49.608Z,77.41
2022-09-01T08:45:03.471Z,76.71
2022-09-01T08:46:22.661Z,76.19
2022-09-01T08:47:35.477Z,77.21
2022-09-01T08:49:24.337Z,81.15
2022-09-01T08:50:18.213Z,80.22
2022-09-01T08:51:24.654Z,79.73
2022-09-01T08:52:35.135Z,78.60
2022-09-01T08:53:46.317Z,76.96
2022-09-01T08:55:09.313Z,78.25
2022-09-01T08:56:13.926Z,79.42
2022-09-01T08:57:33.716Z,79.25
2022-09-01T08:58:36.630Z,78.76
2022-09-01T08:59:39.515Z,78.80
2022-09-01T09:01:04.762Z,78.73
2022-09-01T09:02:35.201Z,78.47
2022-09-01T09:04:07.093Z,78.00
2022-09-01T09:05:49.150Z,78.18
2022-09-01T09:07:06.266Z,78.17
2022-09-01T09:08:33.204Z,78.11
2022-09-01T09:09:53.169Z,77.72
2022-09-01T09:11:32.503Z,75.86
2022-09-01T09:12:55.924Z,77.66
2022-09-01T09:14:43.342Z,78.47
2022-09-01T09:16:15.506Z,73.86
2022-09-01T09:17:23.739Z,72.26
2022-09-01T09:18:54.965Z,73.55
2022-09-01T09:19:58.457Z,75.95
2022-09-01T09:21:12.496Z,74.34
2022-09-01T09:22:18.151Z,74.39
2022-09-01T09:23:36.081Z,75.36
2022-09-01T09:24:56.304Z,75.66
2022-09-01T09:25:59.406Z,74.97
2022-09-01T09:27:02.510Z,72.36
2022-09-01T09:28:05.364Z,72.07
2022-09-01T09:29:08.197Z,72.91
2022-09-01T09:30:29.889Z,73.15
2022-09-01T09:31:45.696Z,70.15
2022-09-01T09:34:30.127Z,71.27
2022-09-01T09:35:44.590Z,73.84
2022-09-01T09:36:53.867Z,71.56
2022-09-01T09:38:22.641Z,70.72
2022-09-01T09:39:27.941Z,72.42
2022-09-01T09:40:53.184Z,73.93
2022-09-01T09:42:10.439Z,71.98
2022-09-01T09:43:16.481Z,69.37
2022-09-01T09:44:26.581Z,69.31
2022-09-01T09:45:34.606Z,69.63
2022-09-01T09:46:40.478Z,69.64
2022-09-01T09:47:46.794Z,71.76
2022-09-01T09:49:06.842Z,70.62
2022-09-01T09:50:21.100Z,69.52
2022-09-01T09:51:28.912Z,70.56
2022-09-01T09:52:33.601Z,68.67
2022-09-01T09:53:38.086Z,70.64
2022-09-01T09:55:07.521Z,69.20
2022-09-01T09:56:19.685Z,68.33
2022-09-01T09:57:22.860Z,68.27
2022-09-01T09:58:34.942Z,67.71
2022-09-01T10:00:01.120Z,68.63
2022-09-01T10:01:17.762Z,69.46
2022-09-01T10:02:42.863Z,69.06
2022-09-01T10:03:50.592Z,68.61
2022-09-01T10:04:55.955Z,69.18
2022-09-01T10:05:58.878Z,67.55
2022-09-01T10:07:02.036Z,66.39
2022-09-01T10:08:11.194Z,67.05
2022-09-01T10:09:40.088Z,64.60
2022-09-01T10:10:58.487Z,64.58
2022-09-01T10:12:02.394Z,61.74
2022-09-01T10:13:09.442Z,56.06
2022-09-01T10:14:35.461Z,55.49
2022-09-01T10:15:52.531Z,53.76
2022-09-01T10:17:04.589Z,58.84
2022-09-01T10:18:28.946Z,59.14
2022-09-01T10:19:37.137Z,59.67
2022-09-01T10:20:46.256Z,57.33
2022-09-01T10:21:49.340Z,57.63
2022-09-01T10:22:52.972Z,58.09
2022-09-01T10:24:17.087Z,56.74
2022-09-01T10:25:29.164Z,57.37
2022-09-01T10:26:40.435Z,55.16
2022-09-01T10:27:47.913Z,55.52
2022-09-01T10:29:00.867Z,55.12
2022-09-01T10:30:20.721Z,54.80
2022-09-01T10:31:29.222Z,50.71
2022-09-01T10:33:07.731Z,53.58
2022-09-01T10:34:19.847Z,48.89
2022-09-01T10:35:35.250Z,49.66
2022-09-01T10:36:38.584Z,46.00
2022-09-01T10:37:42.406Z,50.19
2022-09-01T10:38:52.684Z,49.57
2022-09-01T10:40:32.110Z,47.65
2022-09-01T10:41:59.541Z,48.34
2022-09-01T10:43:29.351Z,48.02
2022-09-01T10:44:39.136Z,47.85
2022-09-01T10:45:43.232Z,48.64
2022-09-01T10:46:50.457Z,49.84
2022-09-01T10:47:53.836Z,44.22
2022-09-01T10:49:03.545Z,46.69
2022-09-01T10:50:26.323Z,48.19
2022-09-01T10:51:40.163Z,47.12
2022-09-01T10:52:59.796Z,45.73
2022-09-01T10:54:04.593Z,47.20
2022-09-01T10:55:45.588Z,45.65
2022-09-01T10:56:54.190Z,42.68
2022-09-01T10:59:56.460Z,46.63
2022-09-01T11:01:41.101Z,45.50
2022-09-01T11:02:28.453Z,46.15
2022-09-01T11:03:51.816Z,45.38
2022-09-01T11:04:55.045Z,44.52
2022-09-01T11:06:14.627Z,42.56
2022-09-01T11:07:38.988Z,40.82
2022-09-01T11:09:01.251Z,40.99
2022-09-01T11:10:34.096Z,40.88
2022-09-01T11:11:47.630Z,42.49
2022-09-01T11:13:09.370Z,38.41
2022-09-01T11:14:23.292Z,39.23
2022-09-01T11:15:43.084Z,39.54
2022-09-01T11:17:15.927Z,39.03
2022-09-01T11:18:29.672Z,40.02
2022-09-01T11:19:38.131Z,39.45
2022-09-01T11:20:41.838Z,39.07
2022-09-01T11:21:46.771Z,40.55
2022-09-01T11:23:12.676Z,39.36
2022-09-01T11:24:40.577Z,39.73
2022-09-01T11:27:48.960Z,39.04
2022-09-01T11:28:51.844Z,39.99
2022-09-01T11:30:08.204Z,38.21
2022-09-01T11:31:23.778Z,37.23
2022-09-01T11:32:34.481Z,38.69
2022-09-01T11:34:05.025Z,36.48
2022-09-01T11:35:18.524Z,37.42
2022-09-01T11:36:28.514Z,37.55
2022-09-01T11:37:33.519Z,34.20
2022-09-01T11:38:52.606Z,36.87
2022-09-01T11:40:08.709Z,39.20
2022-09-01T11:41:24.637Z,36.27
2022-09-01T11:42:34.983Z,38.13
2022-09-01T11:43:38.777Z,38.24
2022-09-01T11:44:50.373Z,35.70
2022-09-01T11:46:11.737Z,34.52
2022-09-01T11:47:20.645Z,36.18
2022-09-01T11:48:26.607Z,36.33
2022-09-01T11:49:33.982Z,34.88
2022-09-01T11:50:40.118Z,34.46
2022-09-01T11:51:48.122Z,35.43
2022-09-01T11:52:55.811Z,35.01
2022-09-01T11:54:00.912Z,34.44
2022-09-01T11:55:06.795Z,33.11
2022-09-01T11:56:27.161Z,36.43
2022-09-01T11:57:38.945Z,36.08
2022-09-01T11:58:42.088Z,37.18
2022-09-01T11:59:45.784Z,35.13
2022-09-01T12:00:48.698Z,35.36
2022-09-01T12:01:58.663Z,32.92
2022-09-01T12:03:01.742Z,33.63
2022-09-01T12:04:33.969Z,35.31
2022-09-01T12:05:41.238Z,34.06
2022-09-01T12:06:53.281Z,32.99
2022-09-01T12:07:57.231Z,33.43
2022-09-01T12:09:04.441Z,32.32
2022-09-01T12:10:26.489Z,32.50
2022-09-01T12:11:35.513Z,32.65
2022-09-01T12:12:40.458Z,31.96
2022-09-01T12:13:59.152Z,30.42
2022-09-01T12:15:24.993Z,31.20
2022-09-01T12:16:29.727Z,33.08
2022-09-01T12:17:32.958Z,31.74
2022-09-01T12:18:44.153Z,33.19
2022-09-01T12:19:46.858Z,32.56
2022-09-01T12:20:53.642Z,34.52
2022-09-01T12:22:02.377Z,33.20
2022-09-01T12:23:40.780Z,33.71
2022-09-01T12:24:53.389Z,32.27
2022-09-01T12:25:59.363Z,31.74
2022-09-01T12:27:02.526Z,31.00
2022-09-01T12:28:08.416Z,31.60
2022-09-01T12:29:15.173Z,30.03
2022-09-01T12:30:26.800Z,32.23
2022-09-01T12:31:29.680Z,31.82
2022-09-01T12:32:35.429Z,33.59
2022-09-01T12:33:38.634Z,31.31
2022-09-01T12:34:43.217Z,29.48
2022-09-01T12:35:46.977Z,30.61
2022-09-01T12:37:16.965Z,32.07
2022-09-01T12:38:19.969Z,31.15
2022-09-01T12:39:45.873Z,31.89
2022-09-01T12:40:54.785Z,31.71
2022-09-01T12:42:25.053Z,32.44
2022-09-01T12:43:32.098Z,32.43
2022-09-01T12:44:37.777Z,30.96
2022-09-01T12:45:48.186Z,31.85
2022-09-01T12:46:50.848Z,32.48
2022-09-01T12:47:53.817Z,31.58
2022-09-01T12:49:17.050Z,31.27
2022-09-01T12:50:19.844Z,31.24
2022-09-01T12:51:31.402Z,32.64
2022-09-01T12:52:37.521Z,31.61
2022-09-01T12:53:42.563Z,32.49
2022-09-01T12:54:47.308Z,33.23
2022-09-01T12:56:22.093Z,33.63
2022-09-01T12:57:32.459Z,32.48
2022-09-01T12:58:35.310Z,30.90
2022-09-01T12:59:38.190Z,32.25
2022-09-01T13:00:59.525Z,31.64
2022-09-01T13:02:34.635Z,32.16
2022-09-01T13:03:37.557Z,33.14
2022-09-01T13:04:42.397Z,31.42
2022-09-01T13:05:47.472Z,32.73
2022-09-01T13:06:51.696Z,31.42
2022-09-01T13:07:56.871Z,32.78
2022-09-01T13:08:59.742Z,32.27
2022-09-01T13:10:02.783Z,33.49
2022-09-01T13:11:14.459Z,33.10
2022-09-01T13:12:21.775Z,31.52
2022-09-01T13:13:26.765Z,32.73
2022-09-01T13:14:30.338Z,33.04
2022-09-01T13:15:36.421Z,33.39
2022-09-01T13:16:39.509Z,32.55
2022-09-01T13:17:46.485Z,33.80
2022-09-01T13:20:12.529Z,33.16
2022-09-01T13:21:16.135Z,32.89
2022-09-01T13:22:18.995Z,33.02
2022-09-01T13:23:22.807Z,32.12
2022-09-01T13:24:31.601Z,32.94
2022-09-01T13:25:35.849Z,33.11
2022-09-01T13:26:39.083Z,34.11
2022-09-01T13:27:45.040Z,32.56
2022-09-01T13:28:47.748Z,32.17
2022-09-01T13:29:55.795Z,33.36
2022-09-01T13:32:31.357Z,34.58
2022-09-01T13:34:09.343Z,35.57
2022-09-01T13:34:58.790Z,33.78
2022-09-01T13:36:42.500Z,35.41
2022-09-01T13:37:26.537Z,34.46
2022-09-01T13:38:29.830Z,36.04
2022-09-01T13:39:32.722Z,35.84
2022-09-01T13:40:35.653Z,33.34
2022-09-01T13:41:39.571Z,33.73
2022-09-01T13:42:46.886Z,33.57
2022-09-01T13:43:49.751Z,34.08
2022-09-01T13:44:55.396Z,33.83
2022-09-01T13:45:59.055Z,33.62
2022-09-01T13:49:02.407Z,34.36
2022-09-01T13:50:10.504Z,34.82
2022-09-01T13:51:24.240Z,34.35
2022-09-01T13:52:27.009Z,35.93
2022-09-01T13:53:29.844Z,31.88
2022-09-01T13:54:32.764Z,33.58
2022-09-01T13:55:41.844Z,33.89
2022-09-01T13:56:44.737Z,33.93
2022-09-01T13:57:48.498Z,32.72
2022-09-01T13:58:52.862Z,33.26
2022-09-01T13:59:56.553Z,34.17
2022-09-01T14:01:02.295Z,34.02
2022-09-01T14:02:05.772Z,33.93
2022-09-01T14:03:14.841Z,34.92
2022-09-01T14:04:19.287Z,35.72
2022-09-01T14:05:25.133Z,34.99
2022-09-01T14:06:28.210Z,35.38
2022-09-01T14:07:32.809Z,35.84
2022-09-01T14:08:35.703Z,35.05
2022-09-01T14:09:38.484Z,34.34
2022-09-01T14:10:44.904Z,35.42
2022-09-01T14:11:47.732Z,35.89
2022-09-01T14:12:51.167Z,35.19
2022-09-01T14:13:54.444Z,35.07
2022-09-01T14:15:16.482Z,37.75
2022-09-01T14:16:20.412Z,37.00
2022-09-01T14:17:23.302Z,34.88
2022-09-01T14:18:33.070Z,35.37
2022-09-01T14:19:36.957Z,36.02
2022-09-01T14:20:42.944Z,35.07
2022-09-01T14:21:47.760Z,33.91
2022-09-01T14:22:51.255Z,36.90
2022-09-01T14:23:54.426Z,36.37
2022-09-01T14:24:57.271Z,34.01
2022-09-01T14:26:00.139Z,35.90
2022-09-01T14:27:03.619Z,34.04
2022-09-01T14:28:06.635Z,34.65
2022-09-01T14:29:09.739Z,37.47
2022-09-01T14:30:20.360Z,34.83
2022-09-01T14:31:23.325Z,34.89
2022-09-01T14:32:27.291Z,35.24
2022-09-01T14:33:30.382Z,33.79
2022-09-01T14:34:33.253Z,34.80
2022-09-01T14:35:42.495Z,34.85
2022-09-01T14:36:45.983Z,34.51
2022-09-01T14:37:48.857Z,34.48
2022-09-01T14:38:53.291Z,33.03
2022-09-01T14:39:57.894Z,33.87
2022-09-01T14:41:01.261Z,36.31
2022-09-01T14:42:07.203Z,35.24
2022-09-01T14:43:13.347Z,33.32
2022-09-01T14:44:16.232Z,33.67
2022-09-01T14:45:22.023Z,34.52
2022-09-01T14:46:25.436Z,33.79
2022-09-01T14:47:28.308Z,33.99
2022-09-01T14:48:31.590Z,34.37
2022-09-01T14:49:37.591Z,33.54
2022-09-01T14:50:42.763Z,34.65
2022-09-01T14:53:12.858Z,33.13
2022-09-01T14:54:15.803Z,33.65
2022-09-01T14:55:20.052Z,35.48
2022-09-01T14:56:24.171Z,32.38
2022-09-01T14:57:29.505Z,33.27
2022-09-01T14:58:34.837Z,33.55
2022-09-01T14:59:38.312Z,34.80
2022-09-01T15:00:42.366Z,36.38
2022-09-01T15:01:45.757Z,34.65
2022-09-01T15:02:51.624Z,36.63
2022-09-01T15:03:55.156Z,35.34
2022-09-01T15:04:58.056Z,37.09
2022-09-01T15:06:01.004Z,35.36
2022-09-01T15:07:05.755Z,35.86
2022-09-01T15:08:12.996Z,35.10
2022-09-01T15:09:19.220Z,35.60
2022-09-01T15:10:25.968Z,34.78
2022-09-01T15:11:28.937Z,34.01
2022-09-01T15:12:31.907Z,34.57
2022-09-01T15:13:34.727Z,34.83
2022-09-01T15:14:38.142Z,34.87
2022-09-01T15:15:41.399Z,34.68
2022-09-01T15:16:44.813Z,33.43